Ivs Tembe — 9V2741 — position and weather

sailwx.info

Track history (hours):
 
Tides and Currents Weather Stations Pressure Air Temp Water Temp Dewpoint Dewpoint Depression Visibility Wind Speed Wind Dir Waves Ship Positions

Ivs Tembe

Last reported at 2018-May-30 01:49 UTC. Time now 2018-Jun-19 02:23 UTC.
Position N 57°37' E 006°54'.
Warning: this ship's position is 20 days out of date.

Length 178 m; draft 10.7 m.

Type: Cargo ship. MMSI: 563933000.

Date/timePositionNaut miles runAvg speedWind from/ knotsBaromVisibWave heightAir tempDewpointWater temp
2018-May-30 01:49N 57°37' E 006°54'12711.9
2018-May-29 15:07N 57°47' E 010°50'110.0
2018-May-29 15:00N 57°46' E 010°50'510.0
2018-May-29 14:28N 57°41' E 010°46'2 0.6
2018-May-29 10:31N 57°41' E 010°42'0 0.0
2018-May-29 09:37N 57°41' E 010°42'0 0.0
2018-May-29 09:25N 57°41' E 010°42'0 0.0
2018-May-29 08:55N 57°41' E 010°42'0 0.0
2018-May-29 08:25N 57°41' E 010°42'0 0.0
2018-May-29 07:43N 57°41' E 010°42'0 0.0
2018-May-29 07:25N 57°41' E 010°42'0 0.0
2018-May-29 06:31N 57°41' E 010°42'0 0.0
2018-May-29 05:55N 57°41' E 010°42'0 0.0
2018-May-29 05:13N 57°41' E 010°42'0 0.1
2018-May-29 04:55N 57°41' E 010°42'0 0.2
2018-May-29 04:24N 57°41' E 010°42'1 2.3
2018-May-29 04:00N 57°42' E 010°43'7 9.0
2018-May-29 03:12N 57°37' E 010°54'311.6
2018-May-29 02:56N 57°36' E 010°59'511.7
2018-May-29 02:30N 57°33' E 011°07'611.7
2018-May-29 02:00N 57°31' E 011°17'611.2
2018-May-29 01:30N 57°28' E 011°26'611.6
2018-May-29 01:00N 57°22' E 011°30'611.4
2018-May-29 00:30N 57°17' E 011°34'611.5
2018-May-28 23:58N 57°11' E 011°38'10810.5
2018-May-28 13:42N 55°26' E 010°58'312.1
2018-May-28 13:28N 55°23' E 011°01'611.6
2018-May-28 13:00N 55°18' E 011°03'610.9
2018-May-28 12:28N 55°12' E 011°06'511.2
2018-May-28 12:00N 55°09' E 010°59'612.3
2018-May-28 11:30N 55°03' E 010°60'611.4
2018-May-28 11:00N 54°57' E 010°55'510.5
2018-May-28 10:30N 54°53' E 010°51'612.6
2018-May-28 10:00N 54°47' E 010°49'611.7
2018-May-28 09:30N 54°41' E 010°47'612.1
2018-May-28 09:00N 54°38' E 010°56'612.1
2018-May-28 08:30N 54°36' E 011°06'612.2
2018-May-28 08:00N 54°34' E 011°16'612.3
2018-May-28 07:30N 54°32' E 011°26'612.1
2018-May-28 07:00N 54°29' E 011°35'612.2
2018-May-28 06:30N 54°28' E 011°45'611.9
2018-May-28 06:00N 54°27' E 011°55'1210.0
2018-May-28 04:49N 54°32' E 012°14'716.3
2018-May-28 04:24N 54°38' E 012°18'2 3.8
2018-May-28 03:54N 54°39' E 012°20'3 7.6
2018-May-28 03:30N 54°41' E 012°25'712.1
2018-May-28 02:56N 54°45' E 012°35'512.1
2018-May-28 02:29N 54°47' E 012°43'5112.3
2018-May-27 22:20N 55°06' E 014°06'412.3
2018-May-27 22:00N 55°09' E 014°10'612.5
2018-May-27 21:30N 55°14' E 014°17'612.5
2018-May-27 21:00N 55°18' E 014°24'612.4
2018-May-27 20:30N 55°23' E 014°31'612.0
2018-May-27 20:00N 55°28' E 014°38'612.5
2018-May-27 19:30N 55°31' E 014°48'612.5
2018-May-27 19:00N 55°34' E 014°57'612.6
2018-May-27 18:30N 55°36' E 015°07'612.6
2018-May-27 18:00N 55°39' E 015°18'612.6
2018-May-27 17:30N 55°40' E 015°28'612.7
2018-May-27 17:00N 55°42' E 015°39'612.6
2018-May-27 16:30N 55°44' E 015°50'612.8
2018-May-27 16:00N 55°45' E 016°01'612.9
2018-May-27 15:30N 55°47' E 016°12'612.7
2018-May-27 15:00N 55°48' E 016°23'612.5
2018-May-27 14:30N 55°50' E 016°34'612.0
2018-May-27 14:00N 55°51' E 016°44'611.8
2018-May-27 13:30N 55°52' E 016°55'22310.6
2018-May-26 16:29N 58°48' E 021°10'1211.2
2018-May-26 15:25N 58°58' E 021°23'511.2
2018-May-26 15:00N 59°02' E 021°28'611.2
2018-May-26 14:30N 59°07' E 021°33'612.9
2018-May-26 14:00N 59°12' E 021°41'713.7
2018-May-26 13:30N 59°16' E 021°52'612.1
2018-May-26 13:00N 59°20' E 022°02'611.1
2018-May-26 12:29N 59°23' E 022°10'810.9
2018-May-26 11:48N 59°28' E 022°22'311.0
2018-May-26 11:30N 59°29' E 022°27'510.8
2018-May-26 11:00N 59°32' E 022°37'510.9
2018-May-26 10:30N 59°34' E 022°47'611.0
2018-May-26 10:00N 59°35' E 022°58'611.1
2018-May-26 09:29N 59°37' E 023°09'511.1
2018-May-26 09:00N 59°38' E 023°19'611.2
2018-May-26 08:30N 59°40' E 023°29'611.2
2018-May-26 08:00N 59°41' E 023°40'611.1
2018-May-26 07:30N 59°43' E 023°51'611.3
2018-May-26 07:00N 59°44' E 024°01'612.2
2018-May-26 06:30N 59°46' E 024°13'1313.2
2018-May-26 05:30N 59°49' E 024°39'713.1
2018-May-26 05:00N 59°50' E 024°51'713.1
2018-May-26 04:30N 59°52' E 025°04'713.2
2018-May-26 04:00N 59°53' E 025°17'713.1
2018-May-26 03:30N 59°53' E 025°30'713.2
2018-May-26 03:00N 59°54' E 025°43'713.2
2018-May-26 02:30N 59°56' E 025°55'712.9
2018-May-26 02:00N 59°59' E 026°08'510.5
2018-May-26 01:29N 60°02' E 026°17'510.4
2018-May-26 01:00N 60°05' E 026°24'510.5
2018-May-26 00:30N 60°08' E 026°33'5 9.8
2018-May-26 00:00N 60°12' E 026°40'510.3
2018-May-25 23:30N 60°15' E 026°48'5 9.1
2018-May-25 23:00N 60°19' E 026°53'510.0
2018-May-25 22:30N 60°24' E 026°53'2 4.7
2018-May-25 22:00N 60°26' E 026°55'0 0.0
2018-May-25 21:30N 60°26' E 026°55'0 0.0
2018-May-25 21:00N 60°26' E 026°55'0 0.0
2018-May-25 20:29N 60°26' E 026°55'0 0.0
2018-May-25 19:58N 60°26' E 026°55'0 0.0
2018-May-25 19:28N 60°26' E 026°55'0 0.0
2018-May-25 19:01N 60°26' E 026°55'0 0.0
2018-May-25 18:28N 60°26' E 026°55'0 0.0
2018-May-25 18:00N 60°26' E 026°55'0 0.0
2018-May-25 17:31N 60°26' E 026°55'0 0.0
2018-May-25 17:00N 60°26' E 026°55'0 0.0
2018-May-25 16:31N 60°26' E 026°55'0 0.0
2018-May-25 15:58N 60°26' E 026°55'0 0.0
2018-May-25 15:30N 60°26' E 026°55'0 0.0
2018-May-25 15:00N 60°26' E 026°55'0 0.0
2018-May-25 14:30N 60°26' E 026°55'0 0.0
2018-May-25 13:57N 60°26' E 026°55'0 0.0
2018-May-25 13:27N 60°26' E 026°55'0 0.0
2018-May-25 13:01N 60°26' E 026°55'0 0.0
2018-May-25 12:30N 60°26' E 026°55'0 0.0
2018-May-25 11:57N 60°26' E 026°55'0 0.0
2018-May-25 11:30N 60°26' E 026°55'0 0.0
2018-May-25 11:00N 60°26' E 026°55'0 0.0
2018-May-25 10:30N 60°26' E 026°55'0 0.0
2018-May-25 10:00N 60°26' E 026°55'0 0.0
2018-May-25 09:30N 60°26' E 026°55'0 0.0
2018-May-25 09:00N 60°26' E 026°55'0 0.0
2018-May-25 08:28N 60°26' E 026°55'0 0.0
2018-May-25 08:00N 60°26' E 026°55'0 0.0
2018-May-25 07:30N 60°26' E 026°55'0 0.0
2018-May-25 07:00N 60°26' E 026°55'0 0.0
2018-May-25 06:30N 60°26' E 026°55'0 0.0
2018-May-25 06:00N 60°26' E 026°55'0 0.0
2018-May-25 05:29N 60°26' E 026°55'0 0.0
2018-May-25 05:00N 60°26' E 026°55'0 0.0
2018-May-25 04:30N 60°26' E 026°55'0 0.0
2018-May-25 04:00N 60°26' E 026°55'0 0.0
2018-May-25 03:30N 60°26' E 026°55'0 0.0
2018-May-25 03:00N 60°26' E 026°55'0 0.0
2018-May-25 02:30N 60°26' E 026°55'0 0.0
2018-May-25 02:00N 60°26' E 026°55'0 0.0
2018-May-25 01:30N 60°26' E 026°55'0 0.0
2018-May-25 01:00N 60°26' E 026°55'0 0.0
2018-May-25 00:30N 60°26' E 026°55'0 0.0
2018-May-25 00:00N 60°26' E 026°55'0 0.0
2018-May-24 23:30N 60°26' E 026°55'0 0.0
2018-May-24 23:00N 60°26' E 026°55'0 0.0
2018-May-24 22:30N 60°26' E 026°55'0 0.0
2018-May-24 22:00N 60°26' E 026°55'0 0.0
2018-May-24 21:30N 60°26' E 026°55'0 0.0
2018-May-24 21:00N 60°26' E 026°55'0 0.0
2018-May-24 20:30N 60°26' E 026°55'0 0.0
2018-May-24 20:00N 60°26' E 026°55'0 0.0
2018-May-24 19:30N 60°26' E 026°55'0 0.0
2018-May-24 19:00N 60°26' E 026°55'0 0.0
2018-May-24 18:30N 60°26' E 026°55'0 0.0
2018-May-24 18:00N 60°26' E 026°55'0 0.0
2018-May-24 17:30N 60°26' E 026°55'0 0.0
2018-May-24 17:00N 60°26' E 026°55'0 0.0
2018-May-24 16:30N 60°26' E 026°55'0 0.0
2018-May-24 16:00N 60°26' E 026°55'0 0.0
2018-May-24 15:30N 60°26' E 026°55'0 0.0
2018-May-24 15:00N 60°26' E 026°55'0 0.0
2018-May-24 14:30N 60°26' E 026°55'0 0.0
2018-May-24 14:00N 60°26' E 026°55'0 0.0
2018-May-24 13:30N 60°26' E 026°55'0 0.0
2018-May-24 09:00N 60°26' E 026°55'0 0.0
2018-May-24 08:30N 60°26' E 026°55'0 0.0
2018-May-24 08:00N 60°26' E 026°55'0 0.0
2018-May-24 07:30N 60°26' E 026°55'0 0.0
2018-May-24 07:00N 60°26' E 026°55'0 0.0
2018-May-24 06:30N 60°26' E 026°55'0 0.0
2018-May-24 06:00N 60°26' E 026°55'0 0.0
2018-May-24 05:30N 60°26' E 026°55'0 0.0
2018-May-24 05:00N 60°26' E 026°55'0 0.0
2018-May-24 04:30N 60°26' E 026°55'0 0.0
2018-May-24 04:00N 60°26' E 026°55'0 0.6
2018-May-24 03:30N 60°25' E 026°56'0 0.2
2018-May-24 03:00N 60°25' E 026°56'0 0.0
2018-May-24 02:30N 60°25' E 026°56'0 0.0
2018-May-24 02:00N 60°25' E 026°56'0 0.0
2018-May-24 01:30N 60°25' E 026°56'0 0.0
2018-May-24 01:00N 60°25' E 026°56'0 0.0
2018-May-24 00:30N 60°25' E 026°56'0 0.0
2018-May-24 00:00N 60°25' E 026°56'0 0.0
2018-May-23 23:30N 60°25' E 026°56'0 0.0
2018-May-23 23:00N 60°25' E 026°56'0 0.0
2018-May-23 22:30N 60°25' E 026°56'0 0.0
2018-May-23 22:00N 60°25' E 026°56'0 0.0
2018-May-23 21:30N 60°25' E 026°56'0 0.0
2018-May-23 21:00N 60°25' E 026°56'0 0.0
2018-May-23 20:30N 60°25' E 026°56'0 0.0
2018-May-23 20:00N 60°25' E 026°56'0 0.0
2018-May-23 19:30N 60°25' E 026°56'0 0.0
2018-May-23 19:00N 60°25' E 026°56'0 0.0
2018-May-23 18:30N 60°25' E 026°56'0 0.0
2018-May-23 18:00N 60°25' E 026°56'0 0.0
2018-May-23 17:30N 60°25' E 026°56'0 0.0
2018-May-23 17:00N 60°25' E 026°56'0 0.0
2018-May-23 16:30N 60°25' E 026°56'0 0.0
2018-May-23 16:00N 60°25' E 026°56'0 0.0
2018-May-23 15:27N 60°25' E 026°56'0 0.0
2018-May-23 15:00N 60°25' E 026°56'0 0.0
2018-May-23 14:30N 60°25' E 026°56'0 0.0
2018-May-23 14:00N 60°25' E 026°56'0 0.0
2018-May-23 13:30N 60°25' E 026°56'0 0.0
2018-May-23 13:00N 60°25' E 026°56'0 0.0
2018-May-23 12:30N 60°25' E 026°56'0 0.0
2018-May-23 12:00N 60°25' E 026°56'0 0.0
2018-May-23 11:30N 60°25' E 026°56'0 0.0
2018-May-23 11:00N 60°25' E 026°56'0 0.0
2018-May-23 10:30N 60°25' E 026°56'0 0.0
2018-May-23 10:00N 60°25' E 026°56'0 0.0
2018-May-23 09:30N 60°25' E 026°56'0 0.0
2018-May-23 09:00N 60°25' E 026°56'0 0.0
2018-May-23 08:30N 60°25' E 026°56'0 0.0
2018-May-23 08:00N 60°25' E 026°56'0 0.0
2018-May-23 07:30N 60°25' E 026°56'0 0.0
2018-May-23 07:00N 60°25' E 026°56'0 0.0
2018-May-23 06:30N 60°25' E 026°56'0 0.0
2018-May-23 06:00N 60°25' E 026°56'0 0.0
2018-May-23 05:30N 60°25' E 026°56'0 0.0
2018-May-23 05:00N 60°25' E 026°56'0 0.0
2018-May-23 04:30N 60°25' E 026°56'0 0.0
2018-May-23 04:00N 60°25' E 026°56'0 0.0
2018-May-23 03:30N 60°25' E 026°56'0 0.0
2018-May-23 03:00N 60°25' E 026°56'0 0.0
2018-May-23 02:30N 60°25' E 026°56'0 0.0
2018-May-23 02:00N 60°25' E 026°56'0 0.0
2018-May-23 01:30N 60°25' E 026°56'0 0.0
2018-May-23 01:00N 60°25' E 026°56'0 0.0
2018-May-23 00:30N 60°25' E 026°56'0 0.0
2018-May-23 00:00N 60°25' E 026°56'0 0.0
2018-May-22 23:30N 60°25' E 026°56'0 0.0
2018-May-22 23:00N 60°25' E 026°56'0 0.0
2018-May-22 22:30N 60°25' E 026°56'0 0.0
2018-May-22 22:00N 60°25' E 026°56'0 0.0
2018-May-22 21:30N 60°25' E 026°56'0 0.0
2018-May-22 21:00N 60°25' E 026°56'0 0.0
2018-May-22 20:30N 60°25' E 026°56'0 0.0
2018-May-22 20:00N 60°25' E 026°56'0 0.0
2018-May-22 19:30N 60°25' E 026°56'0 0.0
2018-May-22 19:00N 60°25' E 026°56'0 0.0
2018-May-22 18:30N 60°25' E 026°56'0 0.0
2018-May-22 18:00N 60°25' E 026°56'0 0.0
2018-May-22 17:30N 60°25' E 026°56'0 0.0
2018-May-22 17:00N 60°25' E 026°56'0 0.0
2018-May-22 16:30N 60°25' E 026°56'0 0.0
2018-May-22 16:00N 60°25' E 026°56'0 0.0
2018-May-22 15:30N 60°25' E 026°56'0 0.0
2018-May-22 15:00N 60°25' E 026°56'0 0.0
2018-May-22 14:30N 60°25' E 026°56'0 0.0
2018-May-22 14:00N 60°25' E 026°56'0 0.0
2018-May-22 13:30N 60°25' E 026°56'0 0.0
2018-May-22 13:00N 60°25' E 026°56'0 0.0
2018-May-22 12:30N 60°25' E 026°56'0 0.0
2018-May-22 12:00N 60°25' E 026°56'0 0.0
2018-May-22 11:30N 60°25' E 026°56'0 0.0
2018-May-22 10:54N 60°25' E 026°56'0 0.0
2018-May-22 10:30N 60°25' E 026°56'0 0.0
2018-May-22 10:00N 60°25' E 026°56'0 0.0
2018-May-22 09:30N 60°25' E 026°56'0 0.0
2018-May-22 09:00N 60°25' E 026°56'0 0.0
2018-May-22 08:30N 60°25' E 026°56'0 0.0
2018-May-22 08:00N 60°25' E 026°56'0 0.0
2018-May-22 07:30N 60°25' E 026°56'0 0.0
2018-May-22 07:00N 60°25' E 026°56'0 0.0
2018-May-22 06:30N 60°25' E 026°56'0 0.0
2018-May-22 06:00N 60°25' E 026°56'0 0.0
2018-May-22 05:30N 60°25' E 026°56'0 0.0
2018-May-22 05:00N 60°25' E 026°56'0 0.0
2018-May-22 04:30N 60°25' E 026°56'0 0.0
2018-May-22 04:00N 60°25' E 026°56'0 0.0
2018-May-22 03:30N 60°25' E 026°56'0 0.0
2018-May-22 03:00N 60°25' E 026°56'0 0.0
2018-May-22 02:30N 60°25' E 026°56'0 0.0
2018-May-22 02:00N 60°25' E 026°56'0 0.0
2018-May-22 01:30N 60°25' E 026°56'0 0.0
2018-May-22 01:00N 60°25' E 026°56'0 0.0
2018-May-22 00:30N 60°25' E 026°56'0 0.0
2018-May-22 00:00N 60°25' E 026°56'0 0.0
2018-May-21 23:30N 60°25' E 026°56'0 0.0
2018-May-21 23:00N 60°25' E 026°56'0 0.0
2018-May-21 22:30N 60°25' E 026°56'0 0.0
2018-May-21 22:00N 60°25' E 026°56'0 0.0
2018-May-21 21:30N 60°25' E 026°56'0 0.0
2018-May-21 21:00N 60°25' E 026°56'0 0.0
2018-May-21 20:30N 60°25' E 026°56'0 0.0
2018-May-21 20:00N 60°25' E 026°56'0 0.0
2018-May-21 19:30N 60°25' E 026°56'0 0.0
2018-May-21 19:00N 60°25' E 026°56'0 0.0
2018-May-21 18:30N 60°25' E 026°56'0 0.0
2018-May-21 18:00N 60°25' E 026°56'0 0.0
2018-May-21 17:30N 60°25' E 026°56'0 0.0
2018-May-21 17:00N 60°25' E 026°56'0 0.0
2018-May-21 16:30N 60°25' E 026°56'0 0.0
2018-May-21 16:00N 60°25' E 026°56'0 0.0
2018-May-21 15:30N 60°25' E 026°56'0 0.0
2018-May-21 15:00N 60°25' E 026°56'0 0.0
2018-May-21 14:30N 60°25' E 026°56'0 0.0
2018-May-21 14:00N 60°25' E 026°56'0 0.0
2018-May-21 13:30N 60°25' E 026°56'0 0.0
2018-May-21 13:00N 60°25' E 026°56'0 0.0
2018-May-21 12:30N 60°25' E 026°56'0 0.0
2018-May-21 12:00N 60°25' E 026°56'0 0.0
2018-May-21 11:30N 60°25' E 026°56'0 0.0
2018-May-21 11:00N 60°25' E 026°56'0 0.4
2018-May-21 10:31N 60°25' E 026°56'5 9.0
2018-May-21 10:01N 60°23' E 026°48'611.5
2018-May-21 09:30N 60°20' E 026°38'611.6
2018-May-21 09:01N 60°16' E 026°29'5 9.1
2018-May-21 08:31N 60°13' E 026°24'4 7.4
2018-May-21 08:01N 60°09' E 026°20'4 8.6
2018-May-21 07:31N 60°06' E 026°14'611.4
2018-May-21 07:00N 60°02' E 026°07'5 9.6
2018-May-21 06:30N 59°58' E 026°01'4 8.0
2018-May-21 06:01N 59°55' E 025°57'4 8.0
2018-May-21 05:31N 59°53' E 025°49'611.2
2018-May-21 05:00N 59°52' E 025°38'611.2
2018-May-21 04:31N 59°51' E 025°27'611.0
2018-May-21 04:01N 59°50' E 025°17'510.8
2018-May-21 03:31N 59°49' E 025°06'510.7
2018-May-21 03:01N 59°47' E 024°56'611.2
2018-May-21 02:30N 59°46' E 024°45'611.1
2018-May-21 02:01N 59°45' E 024°34'611.2
2018-May-21 01:30N 59°44' E 024°23'611.4
2018-May-21 01:01N 59°42' E 024°13'611.4
2018-May-21 00:31N 59°40' E 024°02'611.3
2018-May-21 00:01N 59°39' E 023°51'611.4
2018-May-20 23:31N 59°37' E 023°40'611.5
2018-May-20 23:01N 59°35' E 023°30'611.5
2018-May-20 22:30N 59°34' E 023°19'611.5
2018-May-20 22:01N 59°32' E 023°08'611.6
2018-May-20 21:31N 59°30' E 022°57'611.7
2018-May-20 21:01N 59°28' E 022°46'611.7
2018-May-20 20:31N 59°26' E 022°36'611.6
2018-May-20 20:00N 59°23' E 022°25'611.7
2018-May-20 19:30N 59°22' E 022°14'611.7
2018-May-20 19:01N 59°20' E 022°03'611.7
2018-May-20 18:31N 59°19' E 021°52'611.7
2018-May-20 18:01N 59°17' E 021°41'511.0
2018-May-20 17:31N 59°15' E 021°31'611.4
2018-May-20 17:01N 59°10' E 021°25'611.5
2018-May-20 16:30N 59°06' E 021°19'  
Track history (hours):
 
Tides and Currents Weather Stations Pressure Air Temp Water Temp Dewpoint Dewpoint Depression Visibility Wind Speed Wind Dir Waves Ship Positions

Ivs Tembe

Last reported at 2018-May-30 01:49 UTC. Time now 2018-Jun-19 02:23 UTC.
Position N 57°37' E 006°54'.
Warning: this ship's position is 20 days out of date.

Length 178 m; draft 10.7 m.

Type: Cargo ship. MMSI: 563933000.

Date/timePositionNaut miles runAvg speedWind from/ knotsBaromVisibWave heightAir tempDewpointWater temp
2018-May-30 01:49N 57°37' E 006°54'12711.9
2018-May-29 15:07N 57°47' E 010°50'110.0
2018-May-29 15:00N 57°46' E 010°50'510.0
2018-May-29 14:28N 57°41' E 010°46'2 0.6
2018-May-29 10:31N 57°41' E 010°42'0 0.0
2018-May-29 09:37N 57°41' E 010°42'0 0.0
2018-May-29 09:25N 57°41' E 010°42'0 0.0
2018-May-29 08:55N 57°41' E 010°42'0 0.0
2018-May-29 08:25N 57°41' E 010°42'0 0.0
2018-May-29 07:43N 57°41' E 010°42'0 0.0
2018-May-29 07:25N 57°41' E 010°42'0 0.0
2018-May-29 06:31N 57°41' E 010°42'0 0.0
2018-May-29 05:55N 57°41' E 010°42'0 0.0
2018-May-29 05:13N 57°41' E 010°42'0 0.1
2018-May-29 04:55N 57°41' E 010°42'0 0.2
2018-May-29 04:24N 57°41' E 010°42'1 2.3
2018-May-29 04:00N 57°42' E 010°43'7 9.0
2018-May-29 03:12N 57°37' E 010°54'311.6
2018-May-29 02:56N 57°36' E 010°59'511.7
2018-May-29 02:30N 57°33' E 011°07'611.7
2018-May-29 02:00N 57°31' E 011°17'611.2
2018-May-29 01:30N 57°28' E 011°26'611.6
2018-May-29 01:00N 57°22' E 011°30'611.4
2018-May-29 00:30N 57°17' E 011°34'611.5
2018-May-28 23:58N 57°11' E 011°38'10810.5
2018-May-28 13:42N 55°26' E 010°58'312.1
2018-May-28 13:28N 55°23' E 011°01'611.6
2018-May-28 13:00N 55°18' E 011°03'610.9
2018-May-28 12:28N 55°12' E 011°06'511.2
2018-May-28 12:00N 55°09' E 010°59'612.3
2018-May-28 11:30N 55°03' E 010°60'611.4
2018-May-28 11:00N 54°57' E 010°55'510.5
2018-May-28 10:30N 54°53' E 010°51'612.6
2018-May-28 10:00N 54°47' E 010°49'611.7
2018-May-28 09:30N 54°41' E 010°47'612.1
2018-May-28 09:00N 54°38' E 010°56'612.1
2018-May-28 08:30N 54°36' E 011°06'612.2
2018-May-28 08:00N 54°34' E 011°16'612.3
2018-May-28 07:30N 54°32' E 011°26'612.1
2018-May-28 07:00N 54°29' E 011°35'612.2
2018-May-28 06:30N 54°28' E 011°45'611.9
2018-May-28 06:00N 54°27' E 011°55'1210.0
2018-May-28 04:49N 54°32' E 012°14'716.3
2018-May-28 04:24N 54°38' E 012°18'2 3.8
2018-May-28 03:54N 54°39' E 012°20'3 7.6
2018-May-28 03:30N 54°41' E 012°25'712.1
2018-May-28 02:56N 54°45' E 012°35'512.1
2018-May-28 02:29N 54°47' E 012°43'5112.3
2018-May-27 22:20N 55°06' E 014°06'412.3
2018-May-27 22:00N 55°09' E 014°10'612.5
2018-May-27 21:30N 55°14' E 014°17'612.5
2018-May-27 21:00N 55°18' E 014°24'612.4
2018-May-27 20:30N 55°23' E 014°31'612.0
2018-May-27 20:00N 55°28' E 014°38'612.5
2018-May-27 19:30N 55°31' E 014°48'612.5
2018-May-27 19:00N 55°34' E 014°57'612.6
2018-May-27 18:30N 55°36' E 015°07'612.6
2018-May-27 18:00N 55°39' E 015°18'612.6
2018-May-27 17:30N 55°40' E 015°28'612.7
2018-May-27 17:00N 55°42' E 015°39'612.6
2018-May-27 16:30N 55°44' E 015°50'612.8
2018-May-27 16:00N 55°45' E 016°01'612.9
2018-May-27 15:30N 55°47' E 016°12'612.7
2018-May-27 15:00N 55°48' E 016°23'612.5
2018-May-27 14:30N 55°50' E 016°34'612.0
2018-May-27 14:00N 55°51' E 016°44'611.8
2018-May-27 13:30N 55°52' E 016°55'22310.6
2018-May-26 16:29N 58°48' E 021°10'1211.2
2018-May-26 15:25N 58°58' E 021°23'511.2
2018-May-26 15:00N 59°02' E 021°28'611.2
2018-May-26 14:30N 59°07' E 021°33'612.9
2018-May-26 14:00N 59°12' E 021°41'713.7
2018-May-26 13:30N 59°16' E 021°52'612.1
2018-May-26 13:00N 59°20' E 022°02'611.1
2018-May-26 12:29N 59°23' E 022°10'810.9
2018-May-26 11:48N 59°28' E 022°22'311.0
2018-May-26 11:30N 59°29' E 022°27'510.8
2018-May-26 11:00N 59°32' E 022°37'510.9
2018-May-26 10:30N 59°34' E 022°47'611.0
2018-May-26 10:00N 59°35' E 022°58'611.1
2018-May-26 09:29N 59°37' E 023°09'511.1
2018-May-26 09:00N 59°38' E 023°19'611.2
2018-May-26 08:30N 59°40' E 023°29'611.2
2018-May-26 08:00N 59°41' E 023°40'611.1
2018-May-26 07:30N 59°43' E 023°51'611.3
2018-May-26 07:00N 59°44' E 024°01'612.2
2018-May-26 06:30N 59°46' E 024°13'1313.2
2018-May-26 05:30N 59°49' E 024°39'713.1
2018-May-26 05:00N 59°50' E 024°51'713.1
2018-May-26 04:30N 59°52' E 025°04'713.2
2018-May-26 04:00N 59°53' E 025°17'713.1
2018-May-26 03:30N 59°53' E 025°30'713.2
2018-May-26 03:00N 59°54' E 025°43'713.2
2018-May-26 02:30N 59°56' E 025°55'712.9
2018-May-26 02:00N 59°59' E 026°08'510.5
2018-May-26 01:29N 60°02' E 026°17'510.4
2018-May-26 01:00N 60°05' E 026°24'510.5
2018-May-26 00:30N 60°08' E 026°33'5 9.8
2018-May-26 00:00N 60°12' E 026°40'510.3
2018-May-25 23:30N 60°15' E 026°48'5 9.1
2018-May-25 23:00N 60°19' E 026°53'510.0
2018-May-25 22:30N 60°24' E 026°53'2 4.7
2018-May-25 22:00N 60°26' E 026°55'0 0.0
2018-May-25 21:30N 60°26' E 026°55'0 0.0
2018-May-25 21:00N 60°26' E 026°55'0 0.0
2018-May-25 20:29N 60°26' E 026°55'0 0.0
2018-May-25 19:58N 60°26' E 026°55'0 0.0
2018-May-25 19:28N 60°26' E 026°55'0 0.0
2018-May-25 19:01N 60°26' E 026°55'0 0.0
2018-May-25 18:28N 60°26' E 026°55'0 0.0
2018-May-25 18:00N 60°26' E 026°55'0 0.0
2018-May-25 17:31N 60°26' E 026°55'0 0.0
2018-May-25 17:00N 60°26' E 026°55'0 0.0
2018-May-25 16:31N 60°26' E 026°55'0 0.0
2018-May-25 15:58N 60°26' E 026°55'0 0.0
2018-May-25 15:30N 60°26' E 026°55'0 0.0
2018-May-25 15:00N 60°26' E 026°55'0 0.0
2018-May-25 14:30N 60°26' E 026°55'0 0.0
2018-May-25 13:57N 60°26' E 026°55'0 0.0
2018-May-25 13:27N 60°26' E 026°55'0 0.0
2018-May-25 13:01N 60°26' E 026°55'0 0.0
2018-May-25 12:30N 60°26' E 026°55'0 0.0
2018-May-25 11:57N 60°26' E 026°55'0 0.0
2018-May-25 11:30N 60°26' E 026°55'0 0.0
2018-May-25 11:00N 60°26' E 026°55'0 0.0
2018-May-25 10:30N 60°26' E 026°55'0 0.0
2018-May-25 10:00N 60°26' E 026°55'0 0.0
2018-May-25 09:30N 60°26' E 026°55'0 0.0
2018-May-25 09:00N 60°26' E 026°55'0 0.0
2018-May-25 08:28N 60°26' E 026°55'0 0.0
2018-May-25 08:00N 60°26' E 026°55'0 0.0
2018-May-25 07:30N 60°26' E 026°55'0 0.0
2018-May-25 07:00N 60°26' E 026°55'0 0.0
2018-May-25 06:30N 60°26' E 026°55'0 0.0
2018-May-25 06:00N 60°26' E 026°55'0 0.0
2018-May-25 05:29N 60°26' E 026°55'0 0.0
2018-May-25 05:00N 60°26' E 026°55'0 0.0
2018-May-25 04:30N 60°26' E 026°55'0 0.0
2018-May-25 04:00N 60°26' E 026°55'0 0.0
2018-May-25 03:30N 60°26' E 026°55'0 0.0
2018-May-25 03:00N 60°26' E 026°55'0 0.0
2018-May-25 02:30N 60°26' E 026°55'0 0.0
2018-May-25 02:00N 60°26' E 026°55'0 0.0
2018-May-25 01:30N 60°26' E 026°55'0 0.0
2018-May-25 01:00N 60°26' E 026°55'0 0.0
2018-May-25 00:30N 60°26' E 026°55'0 0.0
2018-May-25 00:00N 60°26' E 026°55'0 0.0
2018-May-24 23:30N 60°26' E 026°55'0 0.0
2018-May-24 23:00N 60°26' E 026°55'0 0.0
2018-May-24 22:30N 60°26' E 026°55'0 0.0
2018-May-24 22:00N 60°26' E 026°55'0 0.0
2018-May-24 21:30N 60°26' E 026°55'0 0.0
2018-May-24 21:00N 60°26' E 026°55'0 0.0
2018-May-24 20:30N 60°26' E 026°55'0 0.0
2018-May-24 20:00N 60°26' E 026°55'0 0.0
2018-May-24 19:30N 60°26' E 026°55'0 0.0
2018-May-24 19:00N 60°26' E 026°55'0 0.0
2018-May-24 18:30N 60°26' E 026°55'0 0.0
2018-May-24 18:00N 60°26' E 026°55'0 0.0
2018-May-24 17:30N 60°26' E 026°55'0 0.0
2018-May-24 17:00N 60°26' E 026°55'0 0.0
2018-May-24 16:30N 60°26' E 026°55'0 0.0
2018-May-24 16:00N 60°26' E 026°55'0 0.0
2018-May-24 15:30N 60°26' E 026°55'0 0.0
2018-May-24 15:00N 60°26' E 026°55'0 0.0
2018-May-24 14:30N 60°26' E 026°55'0 0.0
2018-May-24 14:00N 60°26' E 026°55'0 0.0
2018-May-24 13:30N 60°26' E 026°55'0 0.0
2018-May-24 09:00N 60°26' E 026°55'0 0.0
2018-May-24 08:30N 60°26' E 026°55'0 0.0
2018-May-24 08:00N 60°26' E 026°55'0 0.0
2018-May-24 07:30N 60°26' E 026°55'0 0.0
2018-May-24 07:00N 60°26' E 026°55'0 0.0
2018-May-24 06:30N 60°26' E 026°55'0 0.0
2018-May-24 06:00N 60°26' E 026°55'0 0.0
2018-May-24 05:30N 60°26' E 026°55'0 0.0
2018-May-24 05:00N 60°26' E 026°55'0 0.0
2018-May-24 04:30N 60°26' E 026°55'0 0.0
2018-May-24 04:00N 60°26' E 026°55'0 0.6
2018-May-24 03:30N 60°25' E 026°56'0 0.2
2018-May-24 03:00N 60°25' E 026°56'0 0.0
2018-May-24 02:30N 60°25' E 026°56'0 0.0
2018-May-24 02:00N 60°25' E 026°56'0 0.0
2018-May-24 01:30N 60°25' E 026°56'0 0.0
2018-May-24 01:00N 60°25' E 026°56'0 0.0
2018-May-24 00:30N 60°25' E 026°56'0 0.0
2018-May-24 00:00N 60°25' E 026°56'0 0.0
2018-May-23 23:30N 60°25' E 026°56'0 0.0
2018-May-23 23:00N 60°25' E 026°56'0 0.0
2018-May-23 22:30N 60°25' E 026°56'0 0.0
2018-May-23 22:00N 60°25' E 026°56'0 0.0
2018-May-23 21:30N 60°25' E 026°56'0 0.0
2018-May-23 21:00N 60°25' E 026°56'0 0.0
2018-May-23 20:30N 60°25' E 026°56'0 0.0
2018-May-23 20:00N 60°25' E 026°56'0 0.0
2018-May-23 19:30N 60°25' E 026°56'0 0.0
2018-May-23 19:00N 60°25' E 026°56'0 0.0
2018-May-23 18:30N 60°25' E 026°56'0 0.0
2018-May-23 18:00N 60°25' E 026°56'0 0.0
2018-May-23 17:30N 60°25' E 026°56'0 0.0
2018-May-23 17:00N 60°25' E 026°56'0 0.0
2018-May-23 16:30N 60°25' E 026°56'0 0.0
2018-May-23 16:00N 60°25' E 026°56'0 0.0
2018-May-23 15:27N 60°25' E 026°56'0 0.0
2018-May-23 15:00N 60°25' E 026°56'0 0.0
2018-May-23 14:30N 60°25' E 026°56'0 0.0
2018-May-23 14:00N 60°25' E 026°56'0 0.0
2018-May-23 13:30N 60°25' E 026°56'0 0.0
2018-May-23 13:00N 60°25' E 026°56'0 0.0
2018-May-23 12:30N 60°25' E 026°56'0 0.0
2018-May-23 12:00N 60°25' E 026°56'0 0.0
2018-May-23 11:30N 60°25' E 026°56'0 0.0
2018-May-23 11:00N 60°25' E 026°56'0 0.0
2018-May-23 10:30N 60°25' E 026°56'0 0.0
2018-May-23 10:00N 60°25' E 026°56'0 0.0
2018-May-23 09:30N 60°25' E 026°56'0 0.0
2018-May-23 09:00N 60°25' E 026°56'0 0.0
2018-May-23 08:30N 60°25' E 026°56'0 0.0
2018-May-23 08:00N 60°25' E 026°56'0 0.0
2018-May-23 07:30N 60°25' E 026°56'0 0.0
2018-May-23 07:00N 60°25' E 026°56'0 0.0
2018-May-23 06:30N 60°25' E 026°56'0 0.0
2018-May-23 06:00N 60°25' E 026°56'0 0.0
2018-May-23 05:30N 60°25' E 026°56'0 0.0
2018-May-23 05:00N 60°25' E 026°56'0 0.0
2018-May-23 04:30N 60°25' E 026°56'0 0.0
2018-May-23 04:00N 60°25' E 026°56'0 0.0
2018-May-23 03:30N 60°25' E 026°56'0 0.0
2018-May-23 03:00N 60°25' E 026°56'0 0.0
2018-May-23 02:30N 60°25' E 026°56'0 0.0
2018-May-23 02:00N 60°25' E 026°56'0 0.0
2018-May-23 01:30N 60°25' E 026°56'0 0.0
2018-May-23 01:00N 60°25' E 026°56'0 0.0
2018-May-23 00:30N 60°25' E 026°56'0 0.0
2018-May-23 00:00N 60°25' E 026°56'0 0.0
2018-May-22 23:30N 60°25' E 026°56'0 0.0
2018-May-22 23:00N 60°25' E 026°56'0 0.0
2018-May-22 22:30N 60°25' E 026°56'0 0.0
2018-May-22 22:00N 60°25' E 026°56'0 0.0
2018-May-22 21:30N 60°25' E 026°56'0 0.0
2018-May-22 21:00N 60°25' E 026°56'0 0.0
2018-May-22 20:30N 60°25' E 026°56'0 0.0
2018-May-22 20:00N 60°25' E 026°56'0 0.0
2018-May-22 19:30N 60°25' E 026°56'0 0.0
2018-May-22 19:00N 60°25' E 026°56'0 0.0
2018-May-22 18:30N 60°25' E 026°56'0 0.0
2018-May-22 18:00N 60°25' E 026°56'0 0.0
2018-May-22 17:30N 60°25' E 026°56'0 0.0
2018-May-22 17:00N 60°25' E 026°56'0 0.0
2018-May-22 16:30N 60°25' E 026°56'0 0.0
2018-May-22 16:00N 60°25' E 026°56'0 0.0
2018-May-22 15:30N 60°25' E 026°56'0 0.0
2018-May-22 15:00N 60°25' E 026°56'0 0.0
2018-May-22 14:30N 60°25' E 026°56'0 0.0
2018-May-22 14:00N 60°25' E 026°56'0 0.0
2018-May-22 13:30N 60°25' E 026°56'0 0.0
2018-May-22 13:00N 60°25' E 026°56'0 0.0
2018-May-22 12:30N 60°25' E 026°56'0 0.0
2018-May-22 12:00N 60°25' E 026°56'0 0.0
2018-May-22 11:30N 60°25' E 026°56'0 0.0
2018-May-22 10:54N 60°25' E 026°56'0 0.0
2018-May-22 10:30N 60°25' E 026°56'0 0.0
2018-May-22 10:00N 60°25' E 026°56'0 0.0
2018-May-22 09:30N 60°25' E 026°56'0 0.0
2018-May-22 09:00N 60°25' E 026°56'0 0.0
2018-May-22 08:30N 60°25' E 026°56'0 0.0
2018-May-22 08:00N 60°25' E 026°56'0 0.0
2018-May-22 07:30N 60°25' E 026°56'0 0.0
2018-May-22 07:00N 60°25' E 026°56'0 0.0
2018-May-22 06:30N 60°25' E 026°56'0 0.0
2018-May-22 06:00N 60°25' E 026°56'0 0.0
2018-May-22 05:30N 60°25' E 026°56'0 0.0
2018-May-22 05:00N 60°25' E 026°56'0 0.0
2018-May-22 04:30N 60°25' E 026°56'0 0.0
2018-May-22 04:00N 60°25' E 026°56'0 0.0
2018-May-22 03:30N 60°25' E 026°56'0 0.0
2018-May-22 03:00N 60°25' E 026°56'0 0.0
2018-May-22 02:30N 60°25' E 026°56'0 0.0
2018-May-22 02:00N 60°25' E 026°56'0 0.0
2018-May-22 01:30N 60°25' E 026°56'0 0.0
2018-May-22 01:00N 60°25' E 026°56'0 0.0
2018-May-22 00:30N 60°25' E 026°56'0 0.0
2018-May-22 00:00N 60°25' E 026°56'0 0.0
2018-May-21 23:30N 60°25' E 026°56'0 0.0
2018-May-21 23:00N 60°25' E 026°56'0 0.0
2018-May-21 22:30N 60°25' E 026°56'0 0.0
2018-May-21 22:00N 60°25' E 026°56'0 0.0
2018-May-21 21:30N 60°25' E 026°56'0 0.0
2018-May-21 21:00N 60°25' E 026°56'0 0.0
2018-May-21 20:30N 60°25' E 026°56'0 0.0
2018-May-21 20:00N 60°25' E 026°56'0 0.0
2018-May-21 19:30N 60°25' E 026°56'0 0.0
2018-May-21 19:00N 60°25' E 026°56'0 0.0
2018-May-21 18:30N 60°25' E 026°56'0 0.0
2018-May-21 18:00N 60°25' E 026°56'0 0.0
2018-May-21 17:30N 60°25' E 026°56'0 0.0
2018-May-21 17:00N 60°25' E 026°56'0 0.0
2018-May-21 16:30N 60°25' E 026°56'0 0.0
2018-May-21 16:00N 60°25' E 026°56'0 0.0
2018-May-21 15:30N 60°25' E 026°56'0 0.0
2018-May-21 15:00N 60°25' E 026°56'0 0.0
2018-May-21 14:30N 60°25' E 026°56'0 0.0
2018-May-21 14:00N 60°25' E 026°56'0 0.0
2018-May-21 13:30N 60°25' E 026°56'0 0.0
2018-May-21 13:00N 60°25' E 026°56'0 0.0
2018-May-21 12:30N 60°25' E 026°56'0 0.0
2018-May-21 12:00N 60°25' E 026°56'0 0.0
2018-May-21 11:30N 60°25' E 026°56'0 0.0
2018-May-21 11:00N 60°25' E 026°56'0 0.4
2018-May-21 10:31N 60°25' E 026°56'5 9.0
2018-May-21 10:01N 60°23' E 026°48'611.5
2018-May-21 09:30N 60°20' E 026°38'611.6
2018-May-21 09:01N 60°16' E 026°29'5 9.1
2018-May-21 08:31N 60°13' E 026°24'4 7.4
2018-May-21 08:01N 60°09' E 026°20'4 8.6
2018-May-21 07:31N 60°06' E 026°14'611.4
2018-May-21 07:00N 60°02' E 026°07'5 9.6
2018-May-21 06:30N 59°58' E 026°01'4 8.0
2018-May-21 06:01N 59°55' E 025°57'4 8.0
2018-May-21 05:31N 59°53' E 025°49'611.2
2018-May-21 05:00N 59°52' E 025°38'611.2
2018-May-21 04:31N 59°51' E 025°27'611.0
2018-May-21 04:01N 59°50' E 025°17'510.8
2018-May-21 03:31N 59°49' E 025°06'510.7
2018-May-21 03:01N 59°47' E 024°56'611.2
2018-May-21 02:30N 59°46' E 024°45'611.1
2018-May-21 02:01N 59°45' E 024°34'611.2
2018-May-21 01:30N 59°44' E 024°23'611.4
2018-May-21 01:01N 59°42' E 024°13'611.4
2018-May-21 00:31N 59°40' E 024°02'611.3
2018-May-21 00:01N 59°39' E 023°51'611.4
2018-May-20 23:31N 59°37' E 023°40'611.5
2018-May-20 23:01N 59°35' E 023°30'611.5
2018-May-20 22:30N 59°34' E 023°19'611.5
2018-May-20 22:01N 59°32' E 023°08'611.6
2018-May-20 21:31N 59°30' E 022°57'611.7
2018-May-20 21:01N 59°28' E 022°46'611.7
2018-May-20 20:31N 59°26' E 022°36'611.6
2018-May-20 20:00N 59°23' E 022°25'611.7
2018-May-20 19:30N 59°22' E 022°14'611.7
2018-May-20 19:01N 59°20' E 022°03'611.7
2018-May-20 18:31N 59°19' E 021°52'611.7
2018-May-20 18:01N 59°17' E 021°41'511.0
2018-May-20 17:31N 59°15' E 021°31'611.4
2018-May-20 17:01N 59°10' E 021°25'611.5
2018-May-20 16:30N 59°06' E 021°19'  

Dump ship's entire track history